Time;durP1;ratioP1;P1;durP2;ratioP2;P2;SDS_P1;SDS_P2;PMS_P1;PMS_P2;Temp;Humidity;BMP_temperature;BMP_pressure;BME280_temperature;BME280_humidity;BME280_pressure;Samples;Min_cycle;Max_cycle;Signal;HPM_P1;HPM_P2
2024/01/09 00:00:51;;;;;;;10.50;6.55;;;;;;;2.51;38.32;100653.00;4375414;32;20173;-73
2024/01/09 00:03:22;;;;;;;9.57;6.12;;;;;;;2.67;37.06;100655.22;4375224;32;20157;-73
2024/01/09 00:05:52;;;;;;;9.85;6.18;;;;;;;2.36;37.12;100656.84;4375850;32;20157;-73
2024/01/09 00:08:21;;;;;;;11.85;6.35;;;;;;;2.55;35.59;100657.28;4375495;32;20165;-73
2024/01/09 00:10:50;;;;;;;9.65;7.35;;;;;;;2.56;36.00;100654.59;4375200;32;20611;-73
2024/01/09 00:13:19;;;;;;;9.23;6.57;;;;;;;2.47;36.01;100655.69;4375340;32;20185;-74
2024/01/09 00:15:51;;;;;;;8.45;6.75;;;;;;;2.67;36.91;100657.81;4375274;32;20166;-74
2024/01/09 00:18:22;;;;;;;9.85;6.65;;;;;;;2.86;36.84;100665.22;4375285;32;20766;-74
2024/01/09 00:20:51;;;;;;;10.30;6.30;;;;;;;2.60;37.69;100661.47;4375563;32;20169;-73
2024/01/09 00:23:21;;;;;;;9.40;5.87;;;;;;;2.76;37.61;100676.81;4375191;32;20157;-73
2024/01/09 00:25:50;;;;;;;10.60;6.40;;;;;;;2.56;37.34;100678.16;4375229;32;20174;-73
2024/01/09 00:28:20;;;;;;;15.57;6.50;;;;;;;2.53;35.97;100678.22;4375167;32;20177;-73
2024/01/09 00:30:53;;;;;;;7.87;5.75;;;;;;;2.86;37.28;100683.53;4375234;32;20165;-74
2024/01/09 00:33:23;;;;;;;9.20;6.25;;;;;;;2.70;36.80;100694.37;4375258;32;20188;-73
2024/01/09 00:35:53;;;;;;;10.25;5.80;;;;;;;2.60;36.82;100687.66;4375550;32;20166;-74
2024/01/09 00:38:22;;;;;;;8.82;5.70;;;;;;;2.54;36.06;100693.03;4375109;32;20158;-74
2024/01/09 00:40:52;;;;;;;9.65;5.65;;;;;;;2.44;37.12;100695.00;4375173;32;20153;-73
2024/01/09 00:43:21;;;;;;;8.93;6.32;;;;;;;2.70;36.09;100704.00;4375187;32;20174;-74
2024/01/09 00:45:53;;;;;;;6.85;5.40;;;;;;;2.66;36.16;100697.97;4374915;32;20174;-73
2024/01/09 00:48:24;;;;;;;10.02;6.68;;;;;;;2.57;36.03;100708.63;4375058;32;20523;-73
2024/01/09 00:50:54;;;;;;;12.70;8.20;;;;;;;2.60;36.14;100707.72;4375284;32;20170;-74
2024/01/09 00:53:23;;;;;;;11.02;7.28;;;;;;;2.70;36.66;100712.69;4373981;32;20169;-74
2024/01/09 00:55:52;;;;;;;10.15;6.75;;;;;;;2.64;35.07;100720.69;4373347;32;20173;-74
2024/01/09 00:58:21;;;;;;;11.85;6.80;;;;;;;2.70;35.55;100717.94;4375011;32;20538;-73
2024/01/09 01:00:50;;;;;;;10.73;7.37;;;;;;;2.76;35.71;100722.16;4374807;32;20801;-73
2024/01/09 01:03:19;;;;;;;11.48;7.68;;;;;;;2.83;36.60;100726.34;4374952;32;20188;-73
2024/01/09 01:05:55;;;;;;;10.18;6.70;;;;;;;2.76;36.87;100729.16;4375015;32;20150;-73
2024/01/09 01:08:24;;;;;;;12.40;7.90;;;;;;;2.73;37.84;100727.44;4374798;32;20549;-74
2024/01/09 01:10:53;;;;;;;9.15;7.32;;;;;;;2.66;37.63;100734.59;4374680;32;20169;-74
2024/01/09 01:13:22;;;;;;;11.40;6.47;;;;;;;2.71;37.08;100740.59;4373685;32;20162;-73
2024/01/09 01:15:51;;;;;;;10.77;6.30;;;;;;;2.65;35.26;100740.75;4374895;32;20562;-73
2024/01/09 01:18:20;;;;;;;9.68;6.05;;;;;;;2.77;34.40;100746.56;4374631;32;20150;-73
2024/01/09 01:20:49;;;;;;;8.57;6.03;;;;;;;2.70;34.22;100743.25;4375397;32;20457;-73
2024/01/09 01:23:19;;;;;;;6.43;5.20;;;;;;;2.71;34.30;100745.81;4374605;32;20166;-74
2024/01/09 01:25:49;;;;;;;9.00;5.65;;;;;;;2.85;34.90;100742.88;4374786;32;20214;-73
2024/01/09 01:28:18;;;;;;;8.80;5.22;;;;;;;2.84;33.74;100742.91;4374665;32;20163;-73
2024/01/09 01:30:48;;;;;;;8.73;5.62;;;;;;;2.76;33.50;100750.94;4374478;32;20533;-74
2024/01/09 01:33:18;;;;;;;7.35;5.47;;;;;;;2.69;33.53;100751.97;4374605;32;20173;-74
2024/01/09 01:35:47;;;;;;;9.23;6.20;;;;;;;2.61;33.58;100751.28;4374073;32;20138;-73
2024/01/09 01:38:18;;;;;;;9.18;5.53;;;;;;;2.33;32.14;100753.66;4374496;32;20137;-74
2024/01/09 01:40:49;;;;;;;7.75;5.45;;;;;;;2.77;31.09;100749.19;4374523;32;20161;-73
2024/01/09 01:43:18;;;;;;;10.88;5.87;;;;;;;2.84;31.61;100749.00;4374275;32;20450;-74
2024/01/09 01:45:47;;;;;;;6.75;4.78;;;;;;;2.55;31.16;100749.69;4374291;32;20169;-73
2024/01/09 01:48:16;;;;;;;6.78;4.47;;;;;;;2.47;30.72;100754.22;4374454;32;20173;-74
2024/01/09 01:50:46;;;;;;;8.63;4.85;;;;;;;2.60;30.35;100760.03;4373995;32;20169;-74
2024/01/09 01:53:16;;;;;;;6.57;4.78;;;;;;;2.62;31.07;100759.13;4374150;32;20170;-73
2024/01/09 01:55:46;;;;;;;11.80;5.25;;;;;;;2.55;31.37;100781.09;4374031;32;20154;-74
2024/01/09 01:58:16;;;;;;;10.77;4.75;;;;;;;2.66;30.53;100768.63;4374266;32;20166;-73
2024/01/09 02:00:46;;;;;;;9.20;5.72;;;;;;;2.62;30.29;100771.34;4374160;32;20169;-73
2024/01/09 02:03:16;;;;;;;9.43;4.78;;;;;;;2.64;31.98;100766.94;4374394;32;20138;-73
2024/01/09 02:05:47;;;;;;;6.28;4.30;;;;;;;2.58;31.29;100770.56;4374616;32;20154;-73
2024/01/09 02:08:19;;;;;;;8.40;6.37;;;;;;;2.77;31.27;100770.97;4376215;32;20526;-73
2024/01/09 02:10:48;;;;;;;8.88;5.07;;;;;;;2.63;30.43;100771.31;4376159;32;20476;-74
2024/01/09 02:13:20;;;;;;;7.85;4.80;;;;;;;2.58;29.97;100770.56;4376112;32;20157;-73
2024/01/09 02:15:49;;;;;;;7.00;5.37;;;;;;;2.61;29.89;100769.59;4376094;32;20177;-74
2024/01/09 02:18:18;;;;;;;7.72;4.25;;;;;;;2.64;29.26;100772.16;4376764;32;20137;-73
2024/01/09 02:20:48;;;;;;;10.35;4.32;;;;;;;2.47;29.93;100775.16;4375989;32;20806;-73
2024/01/09 02:23:18;;;;;;;7.50;4.55;;;;;;;2.12;30.09;100774.16;4376394;32;20168;-73
2024/01/09 02:25:47;;;;;;;7.35;4.28;;;;;;;2.30;30.18;100767.69;4375952;32;20157;-73
2024/01/09 02:28:32;;;;;;;9.63;5.12;;;;;;;2.07;29.42;100773.41;4376023;32;20161;-73
2024/01/09 02:31:01;;;;;;;11.93;4.53;;;;;;;1.96;29.75;100772.75;4375979;32;20557;-73
2024/01/09 02:33:33;;;;;;;7.22;3.95;;;;;;;2.28;29.84;100779.06;4375884;32;20189;-73
2024/01/09 02:36:02;;;;;;;9.05;5.20;;;;;;;2.11;29.55;100782.91;4376278;32;20573;-73
2024/01/09 02:38:32;;;;;;;7.03;4.65;;;;;;;1.89;28.96;100778.97;4375950;32;20182;-74
2024/01/09 02:41:02;;;;;;;7.10;5.40;;;;;;;2.17;29.66;100776.66;4375929;32;20654;-73
2024/01/09 02:43:31;;;;;;;8.32;5.30;;;;;;;2.02;29.22;100792.66;4375891;32;20204;-73
2024/01/09 02:46:01;;;;;;;7.22;4.22;;;;;;;1.94;29.79;100782.34;4375882;32;20538;-73
2024/01/09 02:48:31;;;;;;;7.90;5.25;;;;;;;2.18;29.08;100784.50;4376037;32;20165;-73
2024/01/09 02:51:01;;;;;;;7.55;4.50;;;;;;;2.26;29.88;100783.44;4376182;32;20188;-74
2024/01/09 02:53:29;;;;;;;5.43;4.28;;;;;;;2.02;29.40;100782.19;4375820;32;20154;-73
2024/01/09 02:55:59;;;;;;;8.07;4.68;;;;;;;1.83;29.65;100784.34;4375794;32;20189;-73
2024/01/09 02:58:28;;;;;;;6.15;4.22;;;;;;;2.27;29.18;100782.59;4375766;32;20181;-73
2024/01/09 03:00:57;;;;;;;8.50;4.75;;;;;;;2.48;29.97;100787.34;4376042;32;20461;-73
2024/01/09 03:03:26;;;;;;;6.85;4.47;;;;;;;1.95;29.34;100784.09;4375752;32;20149;-73
2024/01/09 03:05:57;;;;;;;5.95;4.32;;;;;;;2.16;29.37;100786.25;4375893;32;20221;-73
2024/01/09 03:08:26;;;;;;;6.68;4.37;;;;;;;2.46;29.52;100790.00;4375615;32;20189;-73
2024/01/09 03:10:56;;;;;;;7.20;3.83;;;;;;;2.46;29.88;100797.84;4375808;32;20144;-74
2024/01/09 03:13:25;;;;;;;6.78;4.45;;;;;;;2.58;28.77;100791.50;4375843;32;20534;-73
2024/01/09 03:15:54;;;;;;;5.22;3.87;;;;;;;2.69;29.08;100794.72;4375682;32;20153;-73
2024/01/09 03:18:24;;;;;;;9.00;4.35;;;;;;;2.80;29.25;100798.84;4375532;32;20133;-73
2024/01/09 03:20:54;;;;;;;7.25;4.57;;;;;;;2.15;29.62;100794.16;4376072;32;20147;-73
2024/01/09 03:23:24;;;;;;;6.93;3.75;;;;;;;2.56;30.04;100805.47;4375774;32;20193;-74
2024/01/09 03:25:53;;;;;;;6.07;4.05;;;;;;;2.46;29.46;100797.00;4375575;32;20166;-73
2024/01/09 03:28:22;;;;;;;8.73;4.60;;;;;;;2.33;29.37;100800.75;4375602;32;20179;-73
2024/01/09 03:30:51;;;;;;;8.15;4.93;;;;;;;2.34;28.82;100800.72;4375554;32;20162;-73
2024/01/09 03:33:21;;;;;;;8.40;4.55;;;;;;;2.21;30.50;100802.72;4375491;32;20129;-73
2024/01/09 03:35:51;;;;;;;6.60;4.40;;;;;;;1.88;29.62;100809.47;4375834;32;20530;-73
2024/01/09 03:38:20;;;;;;;4.15;3.75;;;;;;;2.24;29.54;100811.41;4375464;32;20181;-73
2024/01/09 03:40:51;;;;;;;7.43;4.50;;;;;;;2.22;28.77;100808.84;4375701;32;20153;-73
2024/01/09 03:43:20;;;;;;;6.55;4.47;;;;;;;2.05;28.89;100808.28;4375538;32;20163;-73
2024/01/09 03:45:50;;;;;;;5.43;3.62;;;;;;;2.41;29.65;100817.13;4375415;32;20165;-73
2024/01/09 03:48:19;;;;;;;12.93;4.40;;;;;;;2.65;28.05;100811.41;4376105;32;20162;-74
2024/01/09 03:50:48;;;;;;;8.35;3.87;;;;;;;2.34;28.41;100812.94;4390363;32;20177;-74
2024/01/09 03:53:18;;;;;;;7.68;4.15;;;;;;;2.35;29.33;100823.37;4390484;32;20603;-73
2024/01/09 03:55:47;;;;;;;5.90;4.05;;;;;;;2.00;29.34;100824.06;4390347;32;20184;-73
2024/01/09 03:58:18;;;;;;;7.47;5.18;;;;;;;2.33;28.61;100832.97;4390479;32;20173;-73
2024/01/09 04:00:47;;;;;;;5.72;4.20;;;;;;;2.26;29.34;100833.13;4390508;32;20161;-73
2024/01/09 04:03:16;;;;;;;7.15;4.25;;;;;;;2.43;28.76;100838.91;4390772;32;20165;-73
2024/01/09 04:05:46;;;;;;;6.65;4.18;;;;;;;2.26;28.60;100836.63;4375351;32;20177;-73
2024/01/09 04:08:15;;;;;;;6.07;3.83;;;;;;;2.11;28.24;100844.78;4375552;32;20549;-74
2024/01/09 04:10:45;;;;;;;4.90;3.65;;;;;;;2.19;28.65;100850.72;4375373;32;20166;-73
2024/01/09 04:13:14;;;;;;;6.28;3.47;;;;;;;2.30;28.43;100855.75;4375262;32;20189;-73
2024/01/09 04:15:45;;;;;;;6.03;4.25;;;;;;;2.13;28.20;100863.91;4375177;32;20158;-73
2024/01/09 04:18:14;;;;;;;6.65;4.40;;;;;;;1.91;28.58;100864.31;4375681;32;20181;-74
2024/01/09 04:20:43;;;;;;;6.37;3.35;;;;;;;2.02;28.81;100864.13;4375187;32;20652;-73
2024/01/09 04:23:15;;;;;;;5.75;3.30;;;;;;;2.21;29.04;100856.75;4375151;32;20510;-73
2024/01/09 04:25:45;;;;;;;5.53;3.42;;;;;;;2.35;28.71;100859.97;4375144;32;20170;-73
2024/01/09 04:28:14;;;;;;;4.78;3.37;;;;;;;2.39;28.82;100868.63;4374337;32;20185;-73
2024/01/09 04:30:46;;;;;;;4.65;3.62;;;;;;;2.65;28.34;100868.06;4375188;32;20198;-73
2024/01/09 04:33:18;;;;;;;6.15;4.03;;;;;;;2.53;28.85;100876.19;4375379;32;20188;-73
2024/01/09 04:35:47;;;;;;;6.90;4.18;;;;;;;2.79;28.41;100878.25;4375035;32;20161;-73
2024/01/09 04:38:16;;;;;;;6.03;3.92;;;;;;;2.37;29.40;100875.62;4375322;32;20174;-73
2024/01/09 04:40:46;;;;;;;5.50;3.62;;;;;;;2.16;28.90;100879.53;4373598;32;20463;-73
2024/01/09 04:43:15;;;;;;;4.90;3.05;;;;;;;2.32;28.60;100880.97;4375090;32;20189;-73
2024/01/09 04:45:46;;;;;;;5.03;3.25;;;;;;;2.35;28.93;100880.03;4375102;32;20145;-73
2024/01/09 04:48:17;;;;;;;4.82;4.07;;;;;;;2.20;28.94;100881.19;4375399;32;20137;-73
2024/01/09 04:50:46;;;;;;;5.37;3.53;;;;;;;1.86;28.42;100881.84;4374797;32;20181;-73
2024/01/09 04:53:16;;;;;;;5.80;4.18;;;;;;;2.20;28.36;100892.50;4374874;32;20145;-73
2024/01/09 04:55:46;;;;;;;7.30;4.15;;;;;;;2.08;28.84;100881.44;4373328;32;20811;-73
2024/01/09 04:58:14;;;;;;;6.18;3.90;;;;;;;1.95;28.48;100888.66;4374949;32;20165;-73
2024/01/09 05:00:43;;;;;;;6.30;4.18;;;;;;;2.09;28.93;100884.00;4374956;32;20162;-73
2024/01/09 05:03:21;;;;;;;6.12;3.95;;;;;;;2.26;29.41;100886.31;4375178;32;20138;-73
2024/01/09 05:05:51;;;;;;;6.70;4.00;;;;;;;2.11;28.98;100899.69;4374789;32;20157;-73
2024/01/09 05:08:20;;;;;;;8.02;4.80;;;;;;;1.35;28.74;100904.47;4374726;32;20465;-73
2024/01/09 05:10:48;;;;;;;6.93;4.15;;;;;;;2.00;28.83;100905.09;4374838;32;20161;-73
2024/01/09 05:13:18;;;;;;;7.30;4.60;;;;;;;1.93;28.54;100906.09;4374756;32;20526;-73
2024/01/09 05:15:47;;;;;;;7.00;3.90;;;;;;;1.76;28.78;100918.59;4374599;32;20158;-73
2024/01/09 05:18:16;;;;;;;5.35;3.33;;;;;;;1.65;28.72;100916.16;4375151;32;20142;-73
2024/01/09 05:20:48;;;;;;;6.90;4.25;;;;;;;1.63;28.97;100924.03;4374584;32;20185;-73
2024/01/09 05:23:18;;;;;;;6.75;3.97;;;;;;;1.71;29.30;100932.59;4374596;32;20204;-73
2024/01/09 05:25:53;;;;;;;8.05;4.25;;;;;;;1.61;29.02;100931.00;4374459;32;20169;-73
2024/01/09 05:28:23;;;;;;;9.07;6.05;;;;;;;1.68;29.77;100937.88;4373200;32;20158;-73
2024/01/09 05:30:51;;;;;;;8.98;5.10;;;;;;;2.27;28.65;100931.63;4374812;32;20162;-73
2024/01/09 05:33:24;;;;;;;7.00;4.28;;;;;;;2.29;28.45;100949.00;4374531;32;20157;-73
2024/01/09 05:35:55;;;;;;;7.72;4.45;;;;;;;2.33;28.49;100945.44;4374778;32;20177;-73
2024/01/09 05:38:30;;;;;;;9.27;4.93;;;;;;;2.28;28.14;100951.66;4374545;32;20158;-73
2024/01/09 05:40:59;;;;;;;6.75;4.53;;;;;;;2.65;29.04;100943.94;4375881;32;20185;-73
2024/01/09 05:43:28;;;;;;;5.40;3.55;;;;;;;2.54;29.42;100953.78;4376353;32;20435;-73
2024/01/09 05:46:01;;;;;;;;;;;;;;;2.52;29.54;100953.81;4376660;32;20141;-73
2024/01/09 05:48:30;;;;;;;7.12;4.45;;;;;;;2.70;29.61;100952.59;4375920;32;20057;-73
2024/01/09 05:51:00;;;;;;;9.10;4.43;;;;;;;2.75;28.82;100949.88;4376436;32;20157;-73
2024/01/09 05:53:29;;;;;;;5.45;4.03;;;;;;;2.60;28.65;100949.28;4376037;32;20161;-73
2024/01/09 05:55:59;;;;;;;6.97;4.00;;;;;;;2.59;28.39;100962.41;4376204;32;20765;-74
2024/01/09 05:58:28;;;;;;;6.18;3.75;;;;;;;2.24;29.51;100968.28;4375923;32;20525;-73
2024/01/09 06:00:57;;;;;;;7.18;4.22;;;;;;;2.52;28.91;100966.03;4376337;32;20165;-73
2024/01/09 06:03:30;;;;;;;6.50;4.15;;;;;;;2.64;28.61;100964.03;4375037;32;20162;-73
2024/01/09 06:06:00;;;;;;;8.07;4.07;;;;;;;2.46;28.64;100967.88;4376488;32;20207;-73
2024/01/09 06:08:30;;;;;;;7.82;4.53;;;;;;;2.38;29.46;100982.00;4375953;32;20170;-73
2024/01/09 06:11:04;;;;;;;6.22;4.15;;;;;;;2.60;28.89;100982.44;4375970;32;20180;-73
2024/01/09 06:13:33;;;;;;;9.48;5.07;;;;;;;2.43;29.03;100990.63;4375902;32;20166;-73
2024/01/09 06:16:02;;;;;;;5.80;4.20;;;;;;;2.67;28.62;100992.75;4376828;32;20158;-73
2024/01/09 06:18:31;;;;;;;7.55;5.28;;;;;;;2.84;28.61;100992.41;4376770;32;20146;-73
2024/01/09 06:21:02;;;;;;;7.57;5.53;;;;;;;2.74;29.52;100995.28;4377236;32;20173;-74
2024/01/09 06:23:32;;;;;;;43.45;29.77;;;;;;;3.06;29.05;100999.84;4376831;32;20173;-73
2024/01/09 06:26:01;;;;;;;19.37;14.48;;;;;;;2.82;28.70;101009.94;4376629;32;20154;-73
2024/01/09 06:28:30;;;;;;;9.73;7.00;;;;;;;2.77;29.21;101008.28;4376535;32;20166;-73
2024/01/09 06:30:59;;;;;;;7.18;5.68;;;;;;;2.89;28.06;101022.00;4376736;32;20165;-73
2024/01/09 06:33:32;;;;;;;8.82;5.00;;;;;;;2.65;27.93;101020.72;4376573;32;20156;-73
2024/01/09 06:36:02;;;;;;;;;;;;;;;2.69;28.38;101025.00;4377368;32;20169;-73
2024/01/09 06:38:31;;;;;;;6.65;4.47;;;;;;;2.81;29.06;101025.66;4376764;32;20042;-73
2024/01/09 06:41:00;;;;;;;8.48;5.07;;;;;;;2.70;28.70;101029.34;4376566;32;20161;-74
2024/01/09 06:43:29;;;;;;;8.80;4.62;;;;;;;2.66;28.82;101032.06;4376265;32;20173;-73
2024/01/09 06:45:59;;;;;;;6.43;4.03;;;;;;;2.76;29.04;101041.44;4376346;32;20552;-73
2024/01/09 06:48:27;;;;;;;9.20;5.70;;;;;;;2.86;29.92;101044.75;4376910;32;20495;-73
2024/01/09 06:51:01;;;;;;;8.48;4.78;;;;;;;2.87;29.55;101046.47;4376568;32;20188;-73
2024/01/09 06:53:31;;;;;;;8.35;4.62;;;;;;;2.74;29.03;101050.22;4376297;32;20453;-73
2024/01/09 06:56:00;;;;;;;7.32;4.60;;;;;;;2.87;28.59;101057.81;4376366;32;20185;-73
2024/01/09 06:58:30;;;;;;;7.32;4.47;;;;;;;2.92;28.35;101055.97;4376752;32;20522;-73
2024/01/09 07:00:59;;;;;;;7.53;4.87;;;;;;;2.83;28.64;101061.38;4376657;32;20522;-73
2024/01/09 07:03:29;;;;;;;6.60;4.35;;;;;;;2.79;29.00;101062.31;4376436;32;20438;-73
2024/01/09 07:06:02;;;;;;;8.32;4.47;;;;;;;2.80;28.26;101066.66;4376808;32;20186;-73
2024/01/09 07:08:31;;;;;;;5.87;4.12;;;;;;;2.76;28.94;101082.47;4376536;32;20170;-74
2024/01/09 07:11:01;;;;;;;7.32;5.00;;;;;;;2.95;28.33;101076.84;4376431;32;20161;-73
2024/01/09 07:13:30;;;;;;;7.60;4.55;;;;;;;3.02;29.11;101080.22;4376513;32;20178;-73
2024/01/09 07:16:00;;;;;;;9.02;4.70;;;;;;;3.09;28.96;101087.06;4376177;32;20165;-73
2024/01/09 07:18:32;;;;;;;6.37;4.68;;;;;;;2.88;28.63;101095.31;4376457;32;20149;-73
2024/01/09 07:21:10;;;;;;;8.77;4.40;;;;;;;2.91;29.07;101090.03;4376850;32;20134;-73
2024/01/09 07:23:40;;;;;;;7.22;5.00;;;;;;;2.98;28.06;101093.41;4376568;32;20141;-73
2024/01/09 07:26:09;;;;;;;7.03;4.40;;;;;;;3.00;28.13;101097.69;4374723;32;20182;-73
2024/01/09 07:28:42;;;;;;;8.55;4.75;;;;;;;3.07;28.44;101098.47;4376287;32;20437;-73
2024/01/09 07:31:11;;;;;;;9.35;4.87;;;;;;;2.97;28.65;101097.78;4376324;32;20158;-73
2024/01/09 07:33:43;;;;;;;10.93;4.75;;;;;;;3.00;29.01;101109.94;4376214;32;20146;-73
2024/01/09 07:36:15;;;;;;;6.97;4.53;;;;;;;3.06;29.46;101112.44;4376465;32;20185;-73
2024/01/09 07:38:46;;;;;;;8.85;5.47;;;;;;;3.01;28.96;101128.25;4376381;32;20161;-73
2024/01/09 07:41:17;;;;;;;9.32;4.50;;;;;;;2.87;27.98;101119.78;4376137;32;20153;-73
2024/01/09 07:43:46;;;;;;;7.22;4.57;;;;;;;3.38;28.42;101124.91;4376315;32;20181;-73
2024/01/09 07:46:15;;;;;;;6.93;4.32;;;;;;;3.02;29.40;101132.59;4376342;32;20153;-73
2024/01/09 07:48:44;;;;;;;6.55;4.20;;;;;;;3.25;29.24;101131.28;4376455;32;20177;-73
2024/01/09 07:51:15;;;;;;;7.85;4.57;;;;;;;3.30;28.97;101135.53;4376375;32;20471;-73
2024/01/09 07:53:44;;;;;;;10.05;5.78;;;;;;;3.00;27.90;101139.59;4375889;32;20444;-73
2024/01/09 07:56:16;;;;;;;15.65;7.93;;;;;;;3.16;28.55;101146.28;4375798;32;20173;-73
2024/01/09 07:58:46;;;;;;;13.70;8.63;;;;;;;3.14;29.00;101139.34;4375779;32;20169;-73
2024/01/09 08:01:16;;;;;;;11.98;6.40;;;;;;;3.37;28.50;101141.53;4374128;32;20526;-73
2024/01/09 08:03:48;;;;;;;8.23;4.97;;;;;;;3.38;29.30;101143.25;4375496;32;20165;-73
2024/01/09 08:06:19;;;;;;;8.00;5.50;;;;;;;3.18;29.11;101152.34;4375867;32;20193;-73
2024/01/09 08:08:52;;;;;;;8.55;4.45;;;;;;;3.50;28.57;101150.00;4375443;32;20193;-73
2024/01/09 08:11:21;;;;;;;7.93;4.65;;;;;;;3.50;28.76;101152.63;4375678;32;20459;-73
2024/01/09 08:13:50;;;;;;;10.63;6.05;;;;;;;3.55;28.90;101151.63;4375298;32;20173;-73
2024/01/09 08:16:20;;;;;;;12.20;6.22;;;;;;;3.68;28.64;101155.75;4375361;32;20196;-73
2024/01/09 08:18:51;;;;;;;8.98;5.53;;;;;;;3.67;28.35;101156.63;4375388;32;20154;-73
2024/01/09 08:21:22;;;;;;;7.78;4.62;;;;;;;3.76;28.23;101163.44;4375225;32;20137;-73
2024/01/09 08:23:51;;;;;;;5.32;3.72;;;;;;;3.72;28.34;101166.13;4375569;32;20137;-73
2024/01/09 08:26:22;;;;;;;6.45;5.25;;;;;;;3.61;28.92;101162.00;4375130;32;20175;-73
2024/01/09 08:28:52;;;;;;;7.47;4.70;;;;;;;3.48;29.24;101160.50;4375133;32;20173;-74
2024/01/09 08:31:22;;;;;;;6.82;4.28;;;;;;;3.86;29.06;101170.22;4375269;32;20177;-74
2024/01/09 08:33:54;;;;;;;12.05;5.25;;;;;;;3.93;28.84;101163.09;4375220;32;20165;-74
2024/01/09 08:36:29;;;;;;;7.07;5.22;;;;;;;3.59;29.11;101171.63;4375295;32;20172;-74
2024/01/09 08:38:58;;;;;;;10.40;6.28;;;;;;;3.69;26.87;101178.44;4375546;32;20157;-74
2024/01/09 08:41:27;;;;;;;9.40;5.40;;;;;;;3.58;27.71;101176.91;4375117;32;20165;-74
2024/01/09 08:43:56;;;;;;;16.35;5.65;;;;;;;3.56;27.64;101184.78;4375182;32;20152;-74
2024/01/09 08:46:26;;;;;;;9.23;4.37;;;;;;;3.62;27.56;101186.44;4373558;32;20555;-74
2024/01/09 08:48:56;;;;;;;7.50;4.53;;;;;;;3.25;27.43;101195.03;4375209;32;20162;-74
2024/01/09 08:51:25;;;;;;;7.10;4.87;;;;;;;3.55;27.52;101195.31;4375196;32;20150;-74
2024/01/09 08:53:58;;;;;;;6.37;4.40;;;;;;;3.54;27.41;101196.22;4375504;32;20122;-74
2024/01/09 08:56:28;;;;;;;4.43;3.40;;;;;;;3.69;26.91;101195.91;4374841;32;20186;-74
2024/01/09 08:58:57;;;;;;;6.65;3.83;;;;;;;3.55;26.88;101198.81;4375064;32;20161;-74
2024/01/09 09:01:26;;;;;;;11.40;5.90;;;;;;;3.61;26.56;101203.94;4374956;32;20174;-74
2024/01/09 09:03:58;;;;;;;7.40;4.45;;;;;;;3.08;27.30;101205.78;4374959;32;20174;-74
2024/01/09 09:06:27;;;;;;;;;;;;;;;3.38;26.69;101216.63;4375129;32;20538;-74
2024/01/09 09:08:57;;;;;;;8.55;3.90;;;;;;;3.33;26.70;101213.22;4375277;32;20305;-74
2024/01/09 09:11:27;;;;;;;8.35;4.22;;;;;;;3.49;26.50;101214.66;4374775;32;20506;-74
2024/01/09 09:13:56;;;;;;;14.40;9.15;;;;;;;3.32;26.65;101214.94;4374342;32;20177;-74
2024/01/09 09:16:28;;;;;;;8.38;4.93;;;;;;;3.32;27.23;101211.47;4374414;32;20158;-74
2024/01/09 09:19:02;;;;;;;8.02;3.83;;;;;;;3.47;26.71;101216.44;4374779;32;20241;-74
2024/01/09 09:21:31;;;;;;;6.22;4.07;;;;;;;3.38;27.10;101220.09;4374585;32;20419;-73
2024/01/09 09:24:03;;;;;;;6.95;4.05;;;;;;;4.01;26.34;101218.00;4374937;32;20157;-73
2024/01/09 09:26:32;;;;;;;10.20;7.72;;;;;;;4.15;26.17;101216.78;4374370;32;20162;-74
2024/01/09 09:29:03;;;;;;;7.47;4.55;;;;;;;3.86;26.23;101220.03;4374529;32;20165;-73
2024/01/09 09:31:47;;;;;;;6.80;5.10;;;;;;;3.94;26.90;101225.97;4374572;32;20161;-75
2024/01/09 09:34:16;;;;;;;8.57;5.97;;;;;;;4.13;26.46;101221.22;4374498;32;20164;-73
2024/01/09 09:36:45;;;;;;;7.87;4.72;;;;;;;4.42;26.53;101220.56;4374650;32;20162;-73
2024/01/09 09:39:15;;;;;;;9.02;5.47;;;;;;;4.44;25.85;101221.41;4375140;32;20211;-73
2024/01/09 09:41:44;;;;;;;7.22;4.75;;;;;;;4.26;26.23;101215.69;4374926;32;20430;-73
2024/01/09 09:44:15;;;;;;;10.10;5.57;;;;;;;3.82;26.09;101226.22;4374619;32;20150;-73
2024/01/09 09:46:46;;;;;;;8.23;5.07;;;;;;;4.10;26.48;101221.28;4374748;32;20153;-73
2024/01/09 09:49:15;;;;;;;11.40;5.80;;;;;;;4.40;26.57;101217.13;4375154;32;20186;-73
2024/01/09 09:51:45;;;;;;;24.50;9.20;;;;;;;4.63;26.52;101223.56;4375051;32;20157;-73
2024/01/09 09:54:16;;;;;;;12.52;5.82;;;;;;;4.12;27.10;101229.13;4375107;32;20157;-73
2024/01/09 09:56:47;;;;;;;8.85;5.68;;;;;;;4.42;26.26;101220.56;4374441;32;20242;-73
2024/01/09 09:59:16;;;;;;;8.38;4.53;;;;;;;4.41;26.00;101223.22;4374335;32;20522;-73
2024/01/09 10:01:46;;;;;;;8.85;4.28;;;;;;;4.41;25.46;101210.09;4344758;32;20526;-72
2024/01/09 10:04:29;;;;;;;19.12;6.65;;;;;;;4.00;26.25;101219.75;4344300;32;20182;-72
2024/01/09 10:07:01;;;;;;;8.27;4.93;;;;;;;3.90;26.34;101213.81;4344484;32;20468;-72
2024/01/09 10:09:37;;;;;;;8.68;4.75;;;;;;;4.37;26.16;101208.44;4344567;32;20202;-72
2024/01/09 10:12:09;;;;;;;9.52;4.30;;;;;;;4.46;26.75;101217.88;4344642;33;20158;-72
2024/01/09 10:15:00;;;;;;;8.50;4.22;;;;;;;4.47;26.65;101214.34;4342613;32;20157;-72
2024/01/09 10:17:29;;;;;;;13.60;7.18;;;;;;;4.32;25.86;101215.56;4358904;32;20181;-72
2024/01/09 10:19:59;;;;;;;9.82;4.30;;;;;;;4.31;26.79;101216.44;4359014;32;20146;-72
2024/01/09 10:22:35;;;;;;;8.70;5.00;;;;;;;4.86;26.64;101223.03;4358876;32;20166;-72
2024/01/09 10:25:08;;;;;;;7.43;3.67;;;;;;;4.88;25.59;101222.09;4358726;32;20806;-72
2024/01/09 10:27:38;;;;;;;21.52;10.70;;;;;;;4.39;25.42;101225.00;4360175;32;20177;-72
2024/01/09 10:30:10;;;;;;;13.77;6.55;;;;;;;3.68;26.26;101234.38;4361511;33;20178;-72
2024/01/09 10:32:40;;;;;;;16.12;6.45;;;;;;;4.05;26.35;101225.75;4361130;32;20165;-72
2024/01/09 10:35:14;;;;;;;11.93;5.47;;;;;;;4.22;26.96;101235.03;4361137;32;20182;-72
2024/01/09 10:37:44;;;;;;;7.87;4.55;;;;;;;4.45;26.34;101224.88;4361065;32;20165;-72
2024/01/09 10:40:15;;;;;;;7.35;4.25;;;;;;;4.29;25.72;101224.34;4361248;32;20174;-72
2024/01/09 10:42:47;;;;;;;7.60;4.40;;;;;;;3.96;26.28;101225.97;4360898;32;20174;-72
2024/01/09 10:45:19;;;;;;;8.75;5.45;;;;;;;3.88;26.38;101233.09;4361429;33;20162;-72
2024/01/09 10:47:49;;;;;;;6.85;4.80;;;;;;;4.44;26.42;101223.16;4360889;32;20161;-72
2024/01/09 10:50:21;;;;;;;12.07;6.97;;;;;;;4.74;26.40;101228.56;4360964;32;20162;-72
2024/01/09 10:52:52;;;;;;;13.62;10.88;;;;;;;4.84;27.07;101227.47;4359555;32;20531;-72
2024/01/09 10:55:27;;;;;;;12.05;6.15;;;;;;;4.64;26.83;101220.94;4360951;32;20166;-72
2024/01/09 10:57:58;;;;;;;13.02;7.47;;;;;;;4.66;26.35;101228.75;4360952;32;20203;-72
2024/01/09 11:00:29;;;;;;;8.05;5.18;;;;;;;4.81;25.30;101238.91;4361000;32;20146;-72
2024/01/09 11:02:58;;;;;;;8.77;5.35;;;;;;;4.35;25.66;101233.84;4375286;32;20441;-72
2024/01/09 11:05:28;;;;;;;9.20;5.43;;;;;;;4.52;25.53;101236.09;4375561;32;20165;-72
2024/01/09 11:08:04;;;;;;;10.95;6.40;;;;;;;4.41;25.77;101239.81;4374539;32;20172;-72
2024/01/09 11:10:35;;;;;;;8.88;4.68;;;;;;;4.66;25.67;101236.63;4375766;32;20154;-72
2024/01/09 11:13:08;;;;;;;7.07;5.32;;;;;;;5.09;24.75;101238.22;4371106;32;20170;-72
2024/01/09 11:15:46;;;;;;;15.70;7.82;;;;;;;5.75;24.94;101234.69;4360754;32;20150;-71
2024/01/09 11:18:18;;;;;;;16.77;7.93;;;;;;;6.22;24.29;101229.87;4360990;33;20201;-72
2024/01/09 11:20:48;;;;;;;15.85;9.50;;;;;;;6.81;23.87;101234.16;4360661;32;20166;-72
2024/01/09 11:23:52;;;;;;;28.85;16.48;;;;;;;7.87;22.34;101232.22;4360717;32;20507;-72
2024/01/09 11:26:23;;;;;;;50.78;21.83;;;;;;;8.43;21.71;101236.31;4360559;32;20190;-72
2024/01/09 11:28:52;;;;;;;13.55;6.43;;;;;;;8.22;21.71;101235.31;4360735;32;20154;-72
2024/01/09 11:31:23;;;;;;;24.20;13.23;;;;;;;8.52;20.49;101230.69;4360665;32;20550;-72
2024/01/09 11:33:56;;;;;;;9.23;6.25;;;;;;;8.59;21.07;101239.19;4360672;32;20170;-72
2024/01/09 11:36:28;;;;;;;7.22;4.62;;;;;;;9.46;20.52;101225.00;4360705;32;20165;-72
2024/01/09 11:38:59;;;;;;;7.45;4.50;;;;;;;8.83;20.95;101222.38;4360592;32;20161;-72
2024/01/09 11:41:38;;;;;;;13.35;8.88;;;;;;;9.22;20.81;101224.25;4360876;32;20149;-72
2024/01/09 11:44:10;;;;;;;12.00;6.37;;;;;;;8.92;20.91;101221.16;4360722;32;20150;-72
2024/01/09 11:46:41;;;;;;;7.90;5.53;;;;;;;9.55;20.49;101224.63;4360600;32;20162;-72